sensor_id;sensor_type;location;lat;lon;timestamp;temperature;humidity
73780;SHT30;62093;37.614;15.072;2022-12-29T00:02:26;16.13;64.41
73780;SHT30;62093;37.614;15.072;2022-12-29T00:04:52;16.15;64.45
73780;SHT30;62093;37.614;15.072;2022-12-29T00:07:21;16.13;64.39
73780;SHT30;62093;37.614;15.072;2022-12-29T00:09:48;16.15;64.49
73780;SHT30;62093;37.614;15.072;2022-12-29T00:12:14;16.13;64.50
73780;SHT30;62093;37.614;15.072;2022-12-29T00:14:41;16.13;64.55
73780;SHT30;62093;37.614;15.072;2022-12-29T00:17:26;16.13;64.54
73780;SHT30;62093;37.614;15.072;2022-12-29T00:19:52;16.12;64.55
73780;SHT30;62093;37.614;15.072;2022-12-29T00:22:40;16.11;64.55
73780;SHT30;62093;37.614;15.072;2022-12-29T00:25:25;16.11;64.51
73780;SHT30;62093;37.614;15.072;2022-12-29T00:28:10;16.09;64.52
73780;SHT30;62093;37.614;15.072;2022-12-29T00:30:59;16.06;64.57
73780;SHT30;62093;37.614;15.072;2022-12-29T00:33:44;16.09;64.44
73780;SHT30;62093;37.614;15.072;2022-12-29T00:36:34;16.08;64.51
73780;SHT30;62093;37.614;15.072;2022-12-29T00:39:09;16.06;64.51
73780;SHT30;62093;37.614;15.072;2022-12-29T00:41:55;16.06;64.38
73780;SHT30;62093;37.614;15.072;2022-12-29T00:44:41;16.05;64.54
73780;SHT30;62093;37.614;15.072;2022-12-29T00:47:09;16.04;64.53
73780;SHT30;62093;37.614;15.072;2022-12-29T00:49:35;16.06;64.51
73780;SHT30;62093;37.614;15.072;2022-12-29T00:52:07;16.05;64.49
73780;SHT30;62093;37.614;15.072;2022-12-29T00:54:36;16.04;64.45
73780;SHT30;62093;37.614;15.072;2022-12-29T00:57:05;16.04;64.45
73780;SHT30;62093;37.614;15.072;2022-12-29T00:59:34;16.02;64.40
73780;SHT30;62093;37.614;15.072;2022-12-29T01:02:00;16.04;64.60
73780;SHT30;62093;37.614;15.072;2022-12-29T01:04:28;16.02;64.57
73780;SHT30;62093;37.614;15.072;2022-12-29T01:06:54;16.06;64.77
73780;SHT30;62093;37.614;15.072;2022-12-29T01:09:20;16.04;64.54
73780;SHT30;62093;37.614;15.072;2022-12-29T01:12:07;16.04;64.54
73780;SHT30;62093;37.614;15.072;2022-12-29T01:14:34;16.02;64.51
73780;SHT30;62093;37.614;15.072;2022-12-29T01:17:03;16.01;64.62
73780;SHT30;62093;37.614;15.072;2022-12-29T01:19:29;16.02;64.55
73780;SHT30;62093;37.614;15.072;2022-12-29T01:21:56;16.01;64.58
73780;SHT30;62093;37.614;15.072;2022-12-29T01:24:22;16.00;64.48
73780;SHT30;62093;37.614;15.072;2022-12-29T01:26:50;16.02;64.62
73780;SHT30;62093;37.614;15.072;2022-12-29T01:29:16;16.00;64.63
73780;SHT30;62093;37.614;15.072;2022-12-29T01:31:45;16.00;64.38
73780;SHT30;62093;37.614;15.072;2022-12-29T01:34:12;16.01;64.61
73780;SHT30;62093;37.614;15.072;2022-12-29T01:36:39;16.00;64.57
73780;SHT30;62093;37.614;15.072;2022-12-29T01:39:05;16.01;64.63
73780;SHT30;62093;37.614;15.072;2022-12-29T01:41:32;16.01;64.56
73780;SHT30;62093;37.614;15.072;2022-12-29T01:44:00;15.98;64.54
73780;SHT30;62093;37.614;15.072;2022-12-29T01:46:36;15.98;64.61
73780;SHT30;62093;37.614;15.072;2022-12-29T01:51:51;15.98;64.62
73780;SHT30;62093;37.614;15.072;2022-12-29T01:55:09;15.97;64.65
73780;SHT30;62093;37.614;15.072;2022-12-29T01:57:20;15.97;64.59
73780;SHT30;62093;37.614;15.072;2022-12-29T01:59:55;16.00;64.73
73780;SHT30;62093;37.614;15.072;2022-12-29T02:02:23;15.95;64.62
73780;SHT30;62093;37.614;15.072;2022-12-29T02:04:51;15.97;64.61
73780;SHT30;62093;37.614;15.072;2022-12-29T02:07:20;15.95;64.70
73780;SHT30;62093;37.614;15.072;2022-12-29T02:09:49;15.94;64.56
73780;SHT30;62093;37.614;15.072;2022-12-29T02:12:17;15.94;64.69
73780;SHT30;62093;37.614;15.072;2022-12-29T02:14:45;15.94;64.65
73780;SHT30;62093;37.614;15.072;2022-12-29T02:17:50;15.92;64.50
73780;SHT30;62093;37.614;15.072;2022-12-29T02:31:31;15.91;64.66
73780;SHT30;62093;37.614;15.072;2022-12-29T02:48:07;15.85;64.81
73780;SHT30;62093;37.614;15.072;2022-12-29T02:50:43;15.87;64.79
73780;SHT30;62093;37.614;15.072;2022-12-29T02:53:14;15.85;64.90
73780;SHT30;62093;37.614;15.072;2022-12-29T02:55:51;15.85;64.83
73780;SHT30;62093;37.614;15.072;2022-12-29T02:58:22;15.85;64.69
73780;SHT30;62093;37.614;15.072;2022-12-29T03:15:07;15.81;64.70
73780;SHT30;62093;37.614;15.072;2022-12-29T03:17:58;15.80;64.72
73780;SHT30;62093;37.614;15.072;2022-12-29T03:20:32;15.81;64.66
73780;SHT30;62093;37.614;15.072;2022-12-29T03:23:05;15.80;64.63
73780;SHT30;62093;37.614;15.072;2022-12-29T03:25:41;15.81;64.60
73780;SHT30;62093;37.614;15.072;2022-12-29T03:28:20;15.80;64.66
73780;SHT30;62093;37.614;15.072;2022-12-29T03:30:47;15.78;64.70
73780;SHT30;62093;37.614;15.072;2022-12-29T03:33:25;15.78;64.59
73780;SHT30;62093;37.614;15.072;2022-12-29T03:35:59;15.78;64.72
73780;SHT30;62093;37.614;15.072;2022-12-29T03:41:00;15.77;64.79
73780;SHT30;62093;37.614;15.072;2022-12-29T03:43:30;15.80;64.86
73780;SHT30;62093;37.614;15.072;2022-12-29T03:45:57;15.77;64.66
73780;SHT30;62093;37.614;15.072;2022-12-29T03:48:23;15.78;64.79
73780;SHT30;62093;37.614;15.072;2022-12-29T03:50:53;15.74;64.83
73780;SHT30;62093;37.614;15.072;2022-12-29T03:53:19;15.78;64.88
73780;SHT30;62093;37.614;15.072;2022-12-29T03:55:46;15.77;64.72
73780;SHT30;62093;37.614;15.072;2022-12-29T03:58:13;15.80;64.85
73780;SHT30;62093;37.614;15.072;2022-12-29T04:00:56;15.78;64.99
73780;SHT30;62093;37.614;15.072;2022-12-29T04:03:23;15.78;64.99
73780;SHT30;62093;37.614;15.072;2022-12-29T04:05:53;15.74;64.84
73780;SHT30;62093;37.614;15.072;2022-12-29T04:08:20;15.74;64.85
73780;SHT30;62093;37.614;15.072;2022-12-29T04:10:48;15.74;64.87
73780;SHT30;62093;37.614;15.072;2022-12-29T04:13:22;15.75;64.76
73780;SHT30;62093;37.614;15.072;2022-12-29T04:15:49;15.72;64.74
73780;SHT30;62093;37.614;15.072;2022-12-29T04:18:21;15.70;64.70
73780;SHT30;62093;37.614;15.072;2022-12-29T04:20:55;15.71;64.57
73780;SHT30;62093;37.614;15.072;2022-12-29T04:23:35;15.71;64.89
73780;SHT30;62093;37.614;15.072;2022-12-29T04:26:15;15.71;64.89
73780;SHT30;62093;37.614;15.072;2022-12-29T04:28:52;15.71;64.99
73780;SHT30;62093;37.614;15.072;2022-12-29T04:31:36;15.70;64.93
73780;SHT30;62093;37.614;15.072;2022-12-29T04:34:07;15.71;64.95
73780;SHT30;62093;37.614;15.072;2022-12-29T04:36:33;15.70;64.91
73780;SHT30;62093;37.614;15.072;2022-12-29T04:39:00;15.68;64.73
73780;SHT30;62093;37.614;15.072;2022-12-29T04:41:27;15.70;64.98
73780;SHT30;62093;37.614;15.072;2022-12-29T04:43:57;15.70;64.74
73780;SHT30;62093;37.614;15.072;2022-12-29T04:46:36;15.71;64.79
73780;SHT30;62093;37.614;15.072;2022-12-29T04:49:09;15.68;64.84
73780;SHT30;62093;37.614;15.072;2022-12-29T04:52:07;15.68;64.90
73780;SHT30;62093;37.614;15.072;2022-12-29T04:54:34;15.70;64.62
73780;SHT30;62093;37.614;15.072;2022-12-29T04:57:12;15.68;64.83
73780;SHT30;62093;37.614;15.072;2022-12-29T04:59:39;15.70;64.69
73780;SHT30;62093;37.614;15.072;2022-12-29T05:02:07;15.68;64.71
73780;SHT30;62093;37.614;15.072;2022-12-29T05:04:35;15.70;64.72
73780;SHT30;62093;37.614;15.072;2022-12-29T05:07:05;15.68;64.77
73780;SHT30;62093;37.614;15.072;2022-12-29T05:09:31;15.67;64.63
73780;SHT30;62093;37.614;15.072;2022-12-29T05:11:59;15.72;64.76
73780;SHT30;62093;37.614;15.072;2022-12-29T05:14:26;15.71;64.56
73780;SHT30;62093;37.614;15.072;2022-12-29T05:16:53;15.68;64.69
73780;SHT30;62093;37.614;15.072;2022-12-29T05:19:20;15.70;64.64
73780;SHT30;62093;37.614;15.072;2022-12-29T05:21:46;15.68;64.66
73780;SHT30;62093;37.614;15.072;2022-12-29T05:24:13;15.68;64.57
73780;SHT30;62093;37.614;15.072;2022-12-29T05:26:41;15.72;64.56
73780;SHT30;62093;37.614;15.072;2022-12-29T05:29:30;15.70;64.52
73780;SHT30;62093;37.614;15.072;2022-12-29T05:31:57;15.67;64.55
73780;SHT30;62093;37.614;15.072;2022-12-29T05:34:24;15.71;64.35
73780;SHT30;62093;37.614;15.072;2022-12-29T05:36:51;15.68;64.63
73780;SHT30;62093;37.614;15.072;2022-12-29T05:39:17;15.70;64.51
73780;SHT30;62093;37.614;15.072;2022-12-29T05:41:49;15.70;64.52
73780;SHT30;62093;37.614;15.072;2022-12-29T05:44:54;15.74;64.50
73780;SHT30;62093;37.614;15.072;2022-12-29T05:47:39;15.71;64.45
73780;SHT30;62093;37.614;15.072;2022-12-29T05:50:20;15.75;64.54
73780;SHT30;62093;37.614;15.072;2022-12-29T05:53:05;15.77;64.48
73780;SHT30;62093;37.614;15.072;2022-12-29T05:55:32;15.72;64.54
73780;SHT30;62093;37.614;15.072;2022-12-29T05:57:59;15.72;64.39
73780;SHT30;62093;37.614;15.072;2022-12-29T06:00:26;15.72;64.39
73780;SHT30;62093;37.614;15.072;2022-12-29T06:02:52;15.74;64.45
73780;SHT30;62093;37.614;15.072;2022-12-29T06:05:20;15.75;64.33
73780;SHT30;62093;37.614;15.072;2022-12-29T06:07:46;15.75;64.37
73780;SHT30;62093;37.614;15.072;2022-12-29T06:10:15;15.75;64.42
73780;SHT30;62093;37.614;15.072;2022-12-29T06:13:14;15.78;64.52
73780;SHT30;62093;37.614;15.072;2022-12-29T06:15:43;15.78;64.47
73780;SHT30;62093;37.614;15.072;2022-12-29T06:18:10;15.78;64.43
73780;SHT30;62093;37.614;15.072;2022-12-29T06:20:40;15.80;64.45
73780;SHT30;62093;37.614;15.072;2022-12-29T06:23:08;15.77;64.28
73780;SHT30;62093;37.614;15.072;2022-12-29T06:25:34;15.77;64.39
73780;SHT30;62093;37.614;15.072;2022-12-29T06:28:02;15.77;64.55
73780;SHT30;62093;37.614;15.072;2022-12-29T06:30:29;15.80;64.46
73780;SHT30;62093;37.614;15.072;2022-12-29T06:32:55;15.78;64.52
73780;SHT30;62093;37.614;15.072;2022-12-29T06:35:23;15.78;64.56
73780;SHT30;62093;37.614;15.072;2022-12-29T06:37:51;15.82;64.57
73780;SHT30;62093;37.614;15.072;2022-12-29T06:40:18;15.81;64.58
73780;SHT30;62093;37.614;15.072;2022-12-29T06:43:07;15.80;64.55
73780;SHT30;62093;37.614;15.072;2022-12-29T06:45:44;15.82;64.46
73780;SHT30;62093;37.614;15.072;2022-12-29T06:48:11;15.82;64.28
73780;SHT30;62093;37.614;15.072;2022-12-29T06:50:37;15.84;64.44
73780;SHT30;62093;37.614;15.072;2022-12-29T06:53:03;15.81;64.40
73780;SHT30;62093;37.614;15.072;2022-12-29T06:55:33;15.82;64.58
73780;SHT30;62093;37.614;15.072;2022-12-29T06:58:03;15.80;64.52
73780;SHT30;62093;37.614;15.072;2022-12-29T07:00:29;15.78;64.49
73780;SHT30;62093;37.614;15.072;2022-12-29T07:02:56;15.80;64.63
73780;SHT30;62093;37.614;15.072;2022-12-29T07:05:25;15.80;64.53
73780;SHT30;62093;37.614;15.072;2022-12-29T07:07:57;15.82;64.53
73780;SHT30;62093;37.614;15.072;2022-12-29T07:10:23;15.82;64.76
73780;SHT30;62093;37.614;15.072;2022-12-29T07:12:50;15.82;64.70
73780;SHT30;62093;37.614;15.072;2022-12-29T07:15:16;15.85;64.75
73780;SHT30;62093;37.614;15.072;2022-12-29T07:17:43;15.85;64.73
73780;SHT30;62093;37.614;15.072;2022-12-29T07:20:10;15.87;64.66
73780;SHT30;62093;37.614;15.072;2022-12-29T07:22:37;15.87;64.72
73780;SHT30;62093;37.614;15.072;2022-12-29T07:25:04;15.87;64.70
73780;SHT30;62093;37.614;15.072;2022-12-29T07:27:31;15.90;64.72
73780;SHT30;62093;37.614;15.072;2022-12-29T07:29:57;15.88;64.75
73780;SHT30;62093;37.614;15.072;2022-12-29T07:32:24;15.85;64.73
73780;SHT30;62093;37.614;15.072;2022-12-29T07:34:50;15.90;64.85
73780;SHT30;62093;37.614;15.072;2022-12-29T07:37:17;15.88;64.67
73780;SHT30;62093;37.614;15.072;2022-12-29T07:39:44;15.88;64.76
73780;SHT30;62093;37.614;15.072;2022-12-29T07:42:11;15.91;64.66
73780;SHT30;62093;37.614;15.072;2022-12-29T07:44:42;15.90;64.68
73780;SHT30;62093;37.614;15.072;2022-12-29T07:47:33;15.95;64.80
73780;SHT30;62093;37.614;15.072;2022-12-29T07:49:59;15.91;64.51
73780;SHT30;62093;37.614;15.072;2022-12-29T07:52:26;15.92;64.64
73780;SHT30;62093;37.614;15.072;2022-12-29T07:54:53;15.98;64.63
73780;SHT30;62093;37.614;15.072;2022-12-29T07:57:26;15.97;64.49
73780;SHT30;62093;37.614;15.072;2022-12-29T07:59:52;15.95;64.51
73780;SHT30;62093;37.614;15.072;2022-12-29T08:02:19;15.97;64.48
73780;SHT30;62093;37.614;15.072;2022-12-29T08:04:46;15.97;64.44
73780;SHT30;62093;37.614;15.072;2022-12-29T08:07:12;16.00;64.50
73780;SHT30;62093;37.614;15.072;2022-12-29T08:09:39;16.00;64.46
73780;SHT30;62093;37.614;15.072;2022-12-29T08:12:06;16.00;64.54
73780;SHT30;62093;37.614;15.072;2022-12-29T08:14:32;16.02;64.38
73780;SHT30;62093;37.614;15.072;2022-12-29T08:16:59;16.04;64.36
73780;SHT30;62093;37.614;15.072;2022-12-29T08:19:28;16.05;64.44
73780;SHT30;62093;37.614;15.072;2022-12-29T08:21:54;16.02;64.30
73780;SHT30;62093;37.614;15.072;2022-12-29T08:24:20;16.05;63.90
73780;SHT30;62093;37.614;15.072;2022-12-29T08:26:47;16.06;64.20
73780;SHT30;62093;37.614;15.072;2022-12-29T08:29:15;16.05;64.27
73780;SHT30;62093;37.614;15.072;2022-12-29T08:31:44;16.11;64.27
73780;SHT30;62093;37.614;15.072;2022-12-29T08:34:11;16.08;64.10
73780;SHT30;62093;37.614;15.072;2022-12-29T08:36:39;16.08;63.79
73780;SHT30;62093;37.614;15.072;2022-12-29T08:39:06;16.12;63.75
73780;SHT30;62093;37.614;15.072;2022-12-29T08:41:33;16.11;63.58
73780;SHT30;62093;37.614;15.072;2022-12-29T08:43:59;16.15;63.99
73780;SHT30;62093;37.614;15.072;2022-12-29T08:46:29;16.16;64.22
73780;SHT30;62093;37.614;15.072;2022-12-29T08:48:56;16.18;63.98
73780;SHT30;62093;37.614;15.072;2022-12-29T08:51:22;16.21;64.03
73780;SHT30;62093;37.614;15.072;2022-12-29T08:53:49;16.22;63.93
73780;SHT30;62093;37.614;15.072;2022-12-29T08:56:16;16.22;64.00
73780;SHT30;62093;37.614;15.072;2022-12-29T08:58:49;16.25;64.02
73780;SHT30;62093;37.614;15.072;2022-12-29T09:01:17;16.23;64.06
73780;SHT30;62093;37.614;15.072;2022-12-29T09:03:44;16.25;63.73
73780;SHT30;62093;37.614;15.072;2022-12-29T09:06:11;16.25;63.78
73780;SHT30;62093;37.614;15.072;2022-12-29T09:08:37;16.26;63.78
73780;SHT30;62093;37.614;15.072;2022-12-29T09:11:25;16.28;63.72
73780;SHT30;62093;37.614;15.072;2022-12-29T09:13:52;16.28;63.62
73780;SHT30;62093;37.614;15.072;2022-12-29T09:16:21;16.26;63.94
73780;SHT30;62093;37.614;15.072;2022-12-29T09:18:47;16.29;64.14
73780;SHT30;62093;37.614;15.072;2022-12-29T09:21:14;16.32;64.09
73780;SHT30;62093;37.614;15.072;2022-12-29T09:23:43;16.35;64.12
73780;SHT30;62093;37.614;15.072;2022-12-29T09:26:09;16.35;63.98
73780;SHT30;62093;37.614;15.072;2022-12-29T09:28:36;16.35;63.95
73780;SHT30;62093;37.614;15.072;2022-12-29T09:31:03;16.35;63.86
73780;SHT30;62093;37.614;15.072;2022-12-29T09:33:29;16.35;63.73
73780;SHT30;62093;37.614;15.072;2022-12-29T09:35:58;16.33;63.77
73780;SHT30;62093;37.614;15.072;2022-12-29T09:38:26;16.36;63.67
73780;SHT30;62093;37.614;15.072;2022-12-29T09:40:59;16.38;63.63
73780;SHT30;62093;37.614;15.072;2022-12-29T09:48:37;16.39;63.68
73780;SHT30;62093;37.614;15.072;2022-12-29T09:51:11;16.38;63.55
73780;SHT30;62093;37.614;15.072;2022-12-29T09:54:07;16.42;63.53
73780;SHT30;62093;37.614;15.072;2022-12-29T09:56:44;16.41;63.31
73780;SHT30;62093;37.614;15.072;2022-12-29T09:59:17;16.43;63.33
73780;SHT30;62093;37.614;15.072;2022-12-29T10:02:12;16.42;63.31
73780;SHT30;62093;37.614;15.072;2022-12-29T10:04:43;16.43;63.09
73780;SHT30;62093;37.614;15.072;2022-12-29T10:10:14;16.45;63.27
73780;SHT30;62093;37.614;15.072;2022-12-29T10:20:44;16.52;62.99
73780;SHT30;62093;37.614;15.072;2022-12-29T10:23:32;16.51;62.79
73780;SHT30;62093;37.614;15.072;2022-12-29T10:26:02;16.51;63.06
73780;SHT30;62093;37.614;15.072;2022-12-29T10:28:40;16.53;63.33
73780;SHT30;62093;37.614;15.072;2022-12-29T10:31:16;16.55;63.31
73780;SHT30;62093;37.614;15.072;2022-12-29T10:33:56;16.57;63.39
73780;SHT30;62093;37.614;15.072;2022-12-29T10:36:32;16.57;63.37
73780;SHT30;62093;37.614;15.072;2022-12-29T10:44:34;16.63;63.29
73780;SHT30;62093;37.614;15.072;2022-12-29T10:47:09;16.64;63.35
73780;SHT30;62093;37.614;15.072;2022-12-29T10:49:40;16.62;63.36
73780;SHT30;62093;37.614;15.072;2022-12-29T10:52:11;16.62;63.37
73780;SHT30;62093;37.614;15.072;2022-12-29T10:54:53;16.64;63.38
73780;SHT30;62093;37.614;15.072;2022-12-29T10:57:32;16.67;63.27
73780;SHT30;62093;37.614;15.072;2022-12-29T11:00:00;16.67;63.26
73780;SHT30;62093;37.614;15.072;2022-12-29T11:08:34;16.70;63.22
73780;SHT30;62093;37.614;15.072;2022-12-29T11:11:07;16.67;63.28
73780;SHT30;62093;37.614;15.072;2022-12-29T11:13:47;16.70;63.27
73780;SHT30;62093;37.614;15.072;2022-12-29T11:16:14;16.69;63.25
73780;SHT30;62093;37.614;15.072;2022-12-29T11:18:41;16.72;63.09
73780;SHT30;62093;37.614;15.072;2022-12-29T11:24:04;16.77;62.77
73780;SHT30;62093;37.614;15.072;2022-12-29T11:26:32;16.74;62.53
73780;SHT30;62093;37.614;15.072;2022-12-29T11:31:45;16.80;62.50
73780;SHT30;62093;37.614;15.072;2022-12-29T11:34:23;16.80;62.63
73780;SHT30;62093;37.614;15.072;2022-12-29T11:37:00;16.77;62.41
73780;SHT30;62093;37.614;15.072;2022-12-29T11:39:33;16.81;62.54
73780;SHT30;62093;37.614;15.072;2022-12-29T11:42:01;16.83;62.64
73780;SHT30;62093;37.614;15.072;2022-12-29T11:44:36;16.81;62.67
73780;SHT30;62093;37.614;15.072;2022-12-29T11:47:05;16.81;62.47
73780;SHT30;62093;37.614;15.072;2022-12-29T11:49:34;16.84;62.57
73780;SHT30;62093;37.614;15.072;2022-12-29T11:52:00;16.84;62.50
73780;SHT30;62093;37.614;15.072;2022-12-29T11:54:35;16.85;62.59
73780;SHT30;62093;37.614;15.072;2022-12-29T11:57:15;16.85;62.57
73780;SHT30;62093;37.614;15.072;2022-12-29T11:59:55;16.90;62.30
73780;SHT30;62093;37.614;15.072;2022-12-29T12:02:40;16.91;62.49
73780;SHT30;62093;37.614;15.072;2022-12-29T12:07:42;16.91;62.51
73780;SHT30;62093;37.614;15.072;2022-12-29T12:10:20;16.91;62.37
73780;SHT30;62093;37.614;15.072;2022-12-29T12:13:02;16.88;62.35
73780;SHT30;62093;37.614;15.072;2022-12-29T12:16:06;16.90;62.42
73780;SHT30;62093;37.614;15.072;2022-12-29T12:18:41;16.90;62.27
73780;SHT30;62093;37.614;15.072;2022-12-29T12:21:41;16.90;62.32
73780;SHT30;62093;37.614;15.072;2022-12-29T12:29:46;16.93;62.27
73780;SHT30;62093;37.614;15.072;2022-12-29T12:35:04;16.95;62.23
73780;SHT30;62093;37.614;15.072;2022-12-29T12:37:46;16.94;62.22
73780;SHT30;62093;37.614;15.072;2022-12-29T12:46:04;16.94;62.04
73780;SHT30;62093;37.614;15.072;2022-12-29T12:56:44;16.94;62.25
73780;SHT30;62093;37.614;15.072;2022-12-29T12:59:36;16.99;62.03
73780;SHT30;62093;37.614;15.072;2022-12-29T13:02:33;16.99;62.11
73780;SHT30;62093;37.614;15.072;2022-12-29T13:08:24;16.99;62.07
73780;SHT30;62093;37.614;15.072;2022-12-29T13:18:52;16.99;62.20
73780;SHT30;62093;37.614;15.072;2022-12-29T13:27:06;17.01;62.29
73780;SHT30;62093;37.614;15.072;2022-12-29T13:37:34;17.04;62.12
73780;SHT30;62093;37.614;15.072;2022-12-29T13:40:13;17.03;62.22
73780;SHT30;62093;37.614;15.072;2022-12-29T13:42:42;17.03;62.24
73780;SHT30;62093;37.614;15.072;2022-12-29T13:45:21;17.01;62.28
73780;SHT30;62093;37.614;15.072;2022-12-29T13:50:33;17.03;62.28
73780;SHT30;62093;37.614;15.072;2022-12-29T14:06:28;17.01;62.35
73780;SHT30;62093;37.614;15.072;2022-12-29T14:09:00;17.03;62.31
73780;SHT30;62093;37.614;15.072;2022-12-29T14:11:33;17.04;62.32
73780;SHT30;62093;37.614;15.072;2022-12-29T14:14:10;17.01;62.29
73780;SHT30;62093;37.614;15.072;2022-12-29T14:16:37;17.01;62.33
73780;SHT30;62093;37.614;15.072;2022-12-29T14:19:10;17.01;62.32
73780;SHT30;62093;37.614;15.072;2022-12-29T14:21:37;17.04;62.42
73780;SHT30;62093;37.614;15.072;2022-12-29T14:27:25;17.04;62.37
73780;SHT30;62093;37.614;15.072;2022-12-29T14:29:48;17.03;62.34
73780;SHT30;62093;37.614;15.072;2022-12-29T14:34:48;17.00;62.39
73780;SHT30;62093;37.614;15.072;2022-12-29T14:42:39;16.99;62.48
73780;SHT30;62093;37.614;15.072;2022-12-29T14:47:44;16.99;62.46
73780;SHT30;62093;37.614;15.072;2022-12-29T14:52:51;16.99;62.50
73780;SHT30;62093;37.614;15.072;2022-12-29T14:58:05;16.97;62.57
73780;SHT30;62093;37.614;15.072;2022-12-29T15:00:35;16.99;62.61
73780;SHT30;62093;37.614;15.072;2022-12-29T15:03:05;16.97;62.64
73780;SHT30;62093;37.614;15.072;2022-12-29T15:05:47;16.94;62.64
73780;SHT30;62093;37.614;15.072;2022-12-29T15:08:17;16.94;62.68
73780;SHT30;62093;37.614;15.072;2022-12-29T15:10:51;16.94;62.64
73780;SHT30;62093;37.614;15.072;2022-12-29T15:13:24;16.94;62.67
73780;SHT30;62093;37.614;15.072;2022-12-29T15:15:51;16.94;62.70
73780;SHT30;62093;37.614;15.072;2022-12-29T15:20:55;16.93;62.80
73780;SHT30;62093;37.614;15.072;2022-12-29T15:23:22;16.93;62.77
73780;SHT30;62093;37.614;15.072;2022-12-29T15:25:58;16.94;62.77
73780;SHT30;62093;37.614;15.072;2022-12-29T15:28:25;16.93;62.85
73780;SHT30;62093;37.614;15.072;2022-12-29T15:30:57;16.94;62.88
73780;SHT30;62093;37.614;15.072;2022-12-29T15:33:28;16.90;62.95
73780;SHT30;62093;37.614;15.072;2022-12-29T15:35:57;16.42;64.16
73780;SHT30;62093;37.614;15.072;2022-12-29T15:38:29;16.55;64.54
73780;SHT30;62093;37.614;15.072;2022-12-29T15:41:26;16.29;65.03
73780;SHT30;62093;37.614;15.072;2022-12-29T15:46:27;16.49;65.39
73780;SHT30;62093;37.614;15.072;2022-12-29T15:48:55;16.48;65.53
73780;SHT30;62093;37.614;15.072;2022-12-29T15:51:36;16.05;67.36
73780;SHT30;62093;37.614;15.072;2022-12-29T15:54:04;16.25;67.31
73780;SHT30;62093;37.614;15.072;2022-12-29T15:56:31;16.09;66.57
73780;SHT30;62093;37.614;15.072;2022-12-29T15:58:59;16.25;67.64
73780;SHT30;62093;37.614;15.072;2022-12-29T16:01:36;16.15;67.65
73780;SHT30;62093;37.614;15.072;2022-12-29T16:04:09;15.95;67.46
73780;SHT30;62093;37.614;15.072;2022-12-29T16:06:44;15.98;66.21
73780;SHT30;62093;37.614;15.072;2022-12-29T16:09:18;16.25;66.54
73780;SHT30;62093;37.614;15.072;2022-12-29T16:11:51;15.97;66.37
73780;SHT30;62093;37.614;15.072;2022-12-29T16:16:57;16.26;67.08
73780;SHT30;62093;37.614;15.072;2022-12-29T16:21:58;15.72;65.86
73780;SHT30;62093;37.614;15.072;2022-12-29T16:24:30;15.41;67.47
73780;SHT30;62093;37.614;15.072;2022-12-29T16:27:13;15.44;68.13
73780;SHT30;62093;37.614;15.072;2022-12-29T16:29:43;15.53;68.77
73780;SHT30;62093;37.614;15.072;2022-12-29T16:32:28;15.94;68.68
73780;SHT30;62093;37.614;15.072;2022-12-29T16:35:15;15.91;66.83
73780;SHT30;62093;37.614;15.072;2022-12-29T16:37:42;16.15;67.35
73780;SHT30;62093;37.614;15.072;2022-12-29T16:40:37;16.36;66.72
73780;SHT30;62093;37.614;15.072;2022-12-29T16:43:04;16.08;65.98
73780;SHT30;62093;37.614;15.072;2022-12-29T16:48:27;15.61;65.98
73780;SHT30;62093;37.614;15.072;2022-12-29T16:51:14;15.65;66.02
73780;SHT30;62093;37.614;15.072;2022-12-29T16:53:48;15.72;66.57
73780;SHT30;62093;37.614;15.072;2022-12-29T16:56:17;15.68;65.93
73780;SHT30;62093;37.614;15.072;2022-12-29T16:58:49;15.14;65.09
73780;SHT30;62093;37.614;15.072;2022-12-29T17:01:16;14.83;66.48
73780;SHT30;62093;37.614;15.072;2022-12-29T17:03:57;15.02;67.16
73780;SHT30;62093;37.614;15.072;2022-12-29T17:06:25;15.00;68.21
73780;SHT30;62093;37.614;15.072;2022-12-29T17:08:51;14.92;67.06
73780;SHT30;62093;37.614;15.072;2022-12-29T17:11:30;14.76;68.08
73780;SHT30;62093;37.614;15.072;2022-12-29T17:14:38;14.71;66.86
73780;SHT30;62093;37.614;15.072;2022-12-29T17:17:17;14.37;67.53
73780;SHT30;62093;37.614;15.072;2022-12-29T17:19:51;13.97;67.48
73780;SHT30;62093;37.614;15.072;2022-12-29T17:22:22;13.80;68.67
73780;SHT30;62093;37.614;15.072;2022-12-29T17:24:55;14.17;68.52
73780;SHT30;62093;37.614;15.072;2022-12-29T17:27:28;13.91;68.26
73780;SHT30;62093;37.614;15.072;2022-12-29T17:29:58;14.06;67.62
73780;SHT30;62093;37.614;15.072;2022-12-29T17:32:25;14.01;67.70
73780;SHT30;62093;37.614;15.072;2022-12-29T17:34:51;13.73;67.54
73780;SHT30;62093;37.614;15.072;2022-12-29T17:39:49;13.71;67.37
73780;SHT30;62093;37.614;15.072;2022-12-29T17:42:16;13.79;67.12
73780;SHT30;62093;37.614;15.072;2022-12-29T17:44:42;13.76;66.50
73780;SHT30;62093;37.614;15.072;2022-12-29T17:47:11;13.76;66.19
73780;SHT30;62093;37.614;15.072;2022-12-29T17:49:37;13.74;66.71
73780;SHT30;62093;37.614;15.072;2022-12-29T17:52:04;13.84;65.88
73780;SHT30;62093;37.614;15.072;2022-12-29T17:54:30;13.83;65.60
73780;SHT30;62093;37.614;15.072;2022-12-29T17:56:56;13.81;66.67
73780;SHT30;62093;37.614;15.072;2022-12-29T17:59:23;13.83;65.52
73780;SHT30;62093;37.614;15.072;2022-12-29T18:01:49;13.55;65.63
73780;SHT30;62093;37.614;15.072;2022-12-29T18:04:17;13.94;65.77
73780;SHT30;62093;37.614;15.072;2022-12-29T18:06:44;13.70;65.50
73780;SHT30;62093;37.614;15.072;2022-12-29T18:09:12;13.89;65.66
73780;SHT30;62093;37.614;15.072;2022-12-29T18:11:41;13.86;64.96
73780;SHT30;62093;37.614;15.072;2022-12-29T18:14:12;13.90;65.90
73780;SHT30;62093;37.614;15.072;2022-12-29T18:16:39;13.76;64.66
73780;SHT30;62093;37.614;15.072;2022-12-29T18:19:05;14.13;64.90
73780;SHT30;62093;37.614;15.072;2022-12-29T18:21:32;13.99;63.03
73780;SHT30;62093;37.614;15.072;2022-12-29T18:23:58;14.14;63.78
73780;SHT30;62093;37.614;15.072;2022-12-29T18:26:26;13.96;63.05
73780;SHT30;62093;37.614;15.072;2022-12-29T18:28:57;13.70;62.74
73780;SHT30;62093;37.614;15.072;2022-12-29T18:31:28;13.84;60.82
73780;SHT30;62093;37.614;15.072;2022-12-29T18:33:56;13.99;61.21
73780;SHT30;62093;37.614;15.072;2022-12-29T18:36:22;14.06;61.80
73780;SHT30;62093;37.614;15.072;2022-12-29T18:38:49;14.00;62.59
73780;SHT30;62093;37.614;15.072;2022-12-29T18:41:22;14.01;62.21
73780;SHT30;62093;37.614;15.072;2022-12-29T18:43:49;14.03;62.98